sensor_id;sensor_type;location;lat;lon;timestamp;P1;durP1;ratioP1;P2;durP2;ratioP2
54881;SDS011;40775;51.448;4.742;2022-08-11T00:01:57;2.38;;;1.30;;
54881;SDS011;40775;51.448;4.742;2022-08-11T00:04:26;3.25;;;1.58;;
54881;SDS011;40775;51.448;4.742;2022-08-11T00:07:03;3.78;;;1.20;;
54881;SDS011;40775;51.448;4.742;2022-08-11T00:09:32;2.03;;;1.15;;
54881;SDS011;40775;51.448;4.742;2022-08-11T00:12:10;2.65;;;1.20;;
54881;SDS011;40775;51.448;4.742;2022-08-11T00:14:42;2.20;;;1.30;;
54881;SDS011;40775;51.448;4.742;2022-08-11T00:17:12;2.28;;;1.10;;
54881;SDS011;40775;51.448;4.742;2022-08-11T00:19:43;2.22;;;1.10;;
54881;SDS011;40775;51.448;4.742;2022-08-11T00:22:33;1.97;;;1.20;;
54881;SDS011;40775;51.448;4.742;2022-08-11T00:25:19;2.53;;;1.27;;
54881;SDS011;40775;51.448;4.742;2022-08-11T00:27:47;2.78;;;1.23;;
54881;SDS011;40775;51.448;4.742;2022-08-11T00:30:15;2.85;;;1.40;;
54881;SDS011;40775;51.448;4.742;2022-08-11T00:32:44;2.38;;;1.30;;
54881;SDS011;40775;51.448;4.742;2022-08-11T00:35:22;2.90;;;1.40;;
54881;SDS011;40775;51.448;4.742;2022-08-11T00:38:13;2.42;;;1.25;;
54881;SDS011;40775;51.448;4.742;2022-08-11T00:53:02;2.20;;;1.27;;
54881;SDS011;40775;51.448;4.742;2022-08-11T01:02:16;2.38;;;1.23;;
54881;SDS011;40775;51.448;4.742;2022-08-11T01:28:52;1.53;;;0.97;;
54881;SDS011;40775;51.448;4.742;2022-08-11T01:38:19;2.63;;;1.47;;
54881;SDS011;40775;51.448;4.742;2022-08-11T01:59:42;3.80;;;1.08;;
54881;SDS011;40775;51.448;4.742;2022-08-11T02:11:12;1.15;;;0.90;;
54881;SDS011;40775;51.448;4.742;2022-08-11T02:17:21;2.43;;;1.40;;
54881;SDS011;40775;51.448;4.742;2022-08-11T02:20:14;2.65;;;1.30;;
54881;SDS011;40775;51.448;4.742;2022-08-11T02:26:17;2.70;;;1.10;;
54881;SDS011;40775;51.448;4.742;2022-08-11T02:32:12;1.95;;;1.08;;
54881;SDS011;40775;51.448;4.742;2022-08-11T02:35:18;3.13;;;1.20;;
54881;SDS011;40775;51.448;4.742;2022-08-11T02:38:29;1.92;;;1.30;;
54881;SDS011;40775;51.448;4.742;2022-08-11T02:52:50;1.75;;;1.00;;
54881;SDS011;40775;51.448;4.742;2022-08-11T02:55:52;1.88;;;0.95;;
54881;SDS011;40775;51.448;4.742;2022-08-11T02:58:46;2.05;;;1.20;;
54881;SDS011;40775;51.448;4.742;2022-08-11T03:02:01;2.38;;;1.15;;
54881;SDS011;40775;51.448;4.742;2022-08-11T03:05:05;2.70;;;1.30;;
54881;SDS011;40775;51.448;4.742;2022-08-11T03:21:04;2.28;;;1.20;;
54881;SDS011;40775;51.448;4.742;2022-08-11T03:23:58;2.22;;;1.27;;
54881;SDS011;40775;51.448;4.742;2022-08-11T03:29:34;2.00;;;1.02;;
54881;SDS011;40775;51.448;4.742;2022-08-11T03:32:18;1.70;;;1.20;;
54881;SDS011;40775;51.448;4.742;2022-08-11T03:34:55;2.17;;;1.13;;
54881;SDS011;40775;51.448;4.742;2022-08-11T03:37:32;2.33;;;1.08;;
54881;SDS011;40775;51.448;4.742;2022-08-11T03:40:29;3.05;;;1.23;;
54881;SDS011;40775;51.448;4.742;2022-08-11T03:43:56;1.80;;;1.10;;
54881;SDS011;40775;51.448;4.742;2022-08-11T03:50:03;2.28;;;1.20;;
54881;SDS011;40775;51.448;4.742;2022-08-11T03:56:33;2.15;;;1.15;;
54881;SDS011;40775;51.448;4.742;2022-08-11T04:30:27;1.52;;;1.00;;
54881;SDS011;40775;51.448;4.742;2022-08-11T04:39:59;2.33;;;1.20;;
54881;SDS011;40775;51.448;4.742;2022-08-11T04:52:33;2.85;;;1.35;;
54881;SDS011;40775;51.448;4.742;2022-08-11T04:55:47;2.60;;;1.30;;
54881;SDS011;40775;51.448;4.742;2022-08-11T04:59:00;2.40;;;1.20;;
54881;SDS011;40775;51.448;4.742;2022-08-11T05:05:51;3.00;;;1.20;;
54881;SDS011;40775;51.448;4.742;2022-08-11T05:12:30;2.17;;;1.00;;
54881;SDS011;40775;51.448;4.742;2022-08-11T05:15:16;1.60;;;1.00;;
54881;SDS011;40775;51.448;4.742;2022-08-11T05:18:21;2.10;;;1.27;;
54881;SDS011;40775;51.448;4.742;2022-08-11T05:21:09;1.95;;;1.10;;
54881;SDS011;40775;51.448;4.742;2022-08-11T05:24:12;2.60;;;1.15;;
54881;SDS011;40775;51.448;4.742;2022-08-11T05:27:06;2.17;;;1.10;;
54881;SDS011;40775;51.448;4.742;2022-08-11T05:30:29;2.80;;;1.40;;
54881;SDS011;40775;51.448;4.742;2022-08-11T05:33:32;2.85;;;1.50;;
54881;SDS011;40775;51.448;4.742;2022-08-11T05:39:23;5.18;;;1.83;;
54881;SDS011;40775;51.448;4.742;2022-08-11T05:42:14;2.88;;;1.55;;
54881;SDS011;40775;51.448;4.742;2022-08-11T05:45:10;2.83;;;1.23;;
54881;SDS011;40775;51.448;4.742;2022-08-11T05:48:20;3.50;;;1.35;;
54881;SDS011;40775;51.448;4.742;2022-08-11T05:51:06;3.53;;;1.50;;
54881;SDS011;40775;51.448;4.742;2022-08-11T05:53:56;4.15;;;1.63;;
54881;SDS011;40775;51.448;4.742;2022-08-11T05:56:55;3.38;;;1.45;;
54881;SDS011;40775;51.448;4.742;2022-08-11T05:59:25;6.05;;;1.67;;
54881;SDS011;40775;51.448;4.742;2022-08-11T06:01:59;2.40;;;1.30;;
54881;SDS011;40775;51.448;4.742;2022-08-11T06:04:32;2.88;;;1.60;;
54881;SDS011;40775;51.448;4.742;2022-08-11T06:07:01;3.83;;;1.30;;
54881;SDS011;40775;51.448;4.742;2022-08-11T06:09:46;2.35;;;1.38;;
54881;SDS011;40775;51.448;4.742;2022-08-11T06:12:16;2.30;;;1.33;;
54881;SDS011;40775;51.448;4.742;2022-08-11T06:15:06;2.97;;;1.55;;
54881;SDS011;40775;51.448;4.742;2022-08-11T06:17:42;3.17;;;1.52;;
54881;SDS011;40775;51.448;4.742;2022-08-11T06:20:12;2.72;;;1.20;;
54881;SDS011;40775;51.448;4.742;2022-08-11T06:22:42;2.75;;;1.35;;
54881;SDS011;40775;51.448;4.742;2022-08-11T06:25:18;2.20;;;1.40;;
54881;SDS011;40775;51.448;4.742;2022-08-11T06:27:46;2.08;;;1.23;;
54881;SDS011;40775;51.448;4.742;2022-08-11T06:30:33;2.60;;;1.25;;
54881;SDS011;40775;51.448;4.742;2022-08-11T06:36:15;2.58;;;1.52;;
54881;SDS011;40775;51.448;4.742;2022-08-11T06:45:38;2.60;;;1.33;;
54881;SDS011;40775;51.448;4.742;2022-08-11T06:48:53;2.30;;;1.30;;
54881;SDS011;40775;51.448;4.742;2022-08-11T06:51:21;1.90;;;1.20;;
54881;SDS011;40775;51.448;4.742;2022-08-11T06:53:51;2.88;;;1.65;;
54881;SDS011;40775;51.448;4.742;2022-08-11T06:56:38;2.40;;;1.20;;
54881;SDS011;40775;51.448;4.742;2022-08-11T06:59:46;2.05;;;1.27;;
54881;SDS011;40775;51.448;4.742;2022-08-11T07:02:33;4.97;;;1.52;;
54881;SDS011;40775;51.448;4.742;2022-08-11T07:05:28;2.20;;;1.27;;
54881;SDS011;40775;51.448;4.742;2022-08-11T07:08:10;2.08;;;1.27;;
54881;SDS011;40775;51.448;4.742;2022-08-11T07:11:19;1.85;;;1.10;;
54881;SDS011;40775;51.448;4.742;2022-08-11T07:14:30;2.13;;;1.20;;
54881;SDS011;40775;51.448;4.742;2022-08-11T07:17:25;4.25;;;1.30;;
54881;SDS011;40775;51.448;4.742;2022-08-11T07:19:57;1.98;;;1.17;;
54881;SDS011;40775;51.448;4.742;2022-08-11T07:23:04;5.07;;;1.17;;
54881;SDS011;40775;51.448;4.742;2022-08-11T07:25:54;2.38;;;1.20;;
54881;SDS011;40775;51.448;4.742;2022-08-11T07:28:44;2.63;;;1.35;;
54881;SDS011;40775;51.448;4.742;2022-08-11T07:31:37;2.63;;;1.20;;
54881;SDS011;40775;51.448;4.742;2022-08-11T07:37:15;2.70;;;1.30;;
54881;SDS011;40775;51.448;4.742;2022-08-11T07:39:45;2.53;;;1.20;;
54881;SDS011;40775;51.448;4.742;2022-08-11T07:42:15;2.30;;;1.33;;
54881;SDS011;40775;51.448;4.742;2022-08-11T07:44:47;2.38;;;1.05;;
54881;SDS011;40775;51.448;4.742;2022-08-11T07:47:34;2.70;;;1.30;;
54881;SDS011;40775;51.448;4.742;2022-08-11T07:50:21;3.25;;;1.40;;
54881;SDS011;40775;51.448;4.742;2022-08-11T07:53:09;1.42;;;1.02;;
54881;SDS011;40775;51.448;4.742;2022-08-11T07:55:38;2.13;;;1.23;;
54881;SDS011;40775;51.448;4.742;2022-08-11T07:58:17;2.60;;;1.20;;
54881;SDS011;40775;51.448;4.742;2022-08-11T08:01:21;2.72;;;1.40;;
54881;SDS011;40775;51.448;4.742;2022-08-11T08:04:09;3.22;;;1.55;;
54881;SDS011;40775;51.448;4.742;2022-08-11T08:07:00;2.65;;;1.25;;
54881;SDS011;40775;51.448;4.742;2022-08-11T08:09:48;2.63;;;1.50;;
54881;SDS011;40775;51.448;4.742;2022-08-11T08:12:39;2.43;;;1.27;;
54881;SDS011;40775;51.448;4.742;2022-08-11T08:15:25;6.00;;;1.33;;
54881;SDS011;40775;51.448;4.742;2022-08-11T08:18:13;2.17;;;1.23;;
54881;SDS011;40775;51.448;4.742;2022-08-11T08:20:52;3.17;;;1.50;;
54881;SDS011;40775;51.448;4.742;2022-08-11T08:23:25;2.67;;;1.40;;
54881;SDS011;40775;51.448;4.742;2022-08-11T08:26:01;2.33;;;1.33;;
54881;SDS011;40775;51.448;4.742;2022-08-11T08:28:52;3.40;;;1.42;;
54881;SDS011;40775;51.448;4.742;2022-08-11T08:31:40;2.30;;;1.40;;
54881;SDS011;40775;51.448;4.742;2022-08-11T08:34:09;2.80;;;1.40;;
54881;SDS011;40775;51.448;4.742;2022-08-11T08:36:38;1.77;;;1.10;;
54881;SDS011;40775;51.448;4.742;2022-08-11T08:39:13;2.13;;;1.30;;
54881;SDS011;40775;51.448;4.742;2022-08-11T08:41:41;2.90;;;1.40;;
54881;SDS011;40775;51.448;4.742;2022-08-11T08:44:10;3.43;;;1.50;;
54881;SDS011;40775;51.448;4.742;2022-08-11T08:46:59;2.33;;;1.35;;
54881;SDS011;40775;51.448;4.742;2022-08-11T08:49:38;3.95;;;1.55;;
54881;SDS011;40775;51.448;4.742;2022-08-11T08:52:17;6.25;;;1.98;;
54881;SDS011;40775;51.448;4.742;2022-08-11T08:55:00;2.80;;;1.52;;
54881;SDS011;40775;51.448;4.742;2022-08-11T08:57:32;2.08;;;1.40;;
54881;SDS011;40775;51.448;4.742;2022-08-11T09:00:05;3.70;;;1.73;;
54881;SDS011;40775;51.448;4.742;2022-08-11T09:02:38;2.53;;;1.27;;
54881;SDS011;40775;51.448;4.742;2022-08-11T09:05:06;1.50;;;1.07;;
54881;SDS011;40775;51.448;4.742;2022-08-11T09:07:35;2.40;;;1.27;;
54881;SDS011;40775;51.448;4.742;2022-08-11T09:10:07;2.40;;;1.00;;
54881;SDS011;40775;51.448;4.742;2022-08-11T09:12:37;1.50;;;1.10;;
54881;SDS011;40775;51.448;4.742;2022-08-11T09:15:08;2.63;;;1.52;;
54881;SDS011;40775;51.448;4.742;2022-08-11T09:20:12;3.13;;;1.43;;
54881;SDS011;40775;51.448;4.742;2022-08-11T09:22:55;3.20;;;1.55;;
54881;SDS011;40775;51.448;4.742;2022-08-11T09:26:03;4.45;;;1.70;;
54881;SDS011;40775;51.448;4.742;2022-08-11T09:28:56;1.45;;;1.10;;
54881;SDS011;40775;51.448;4.742;2022-08-11T09:31:25;2.75;;;1.10;;
54881;SDS011;40775;51.448;4.742;2022-08-11T09:34:05;2.30;;;1.20;;
54881;SDS011;40775;51.448;4.742;2022-08-11T09:36:34;1.63;;;0.93;;
54881;SDS011;40775;51.448;4.742;2022-08-11T09:39:21;3.08;;;1.50;;
54881;SDS011;40775;51.448;4.742;2022-08-11T09:42:07;3.75;;;1.48;;
54881;SDS011;40775;51.448;4.742;2022-08-11T09:44:42;2.40;;;1.30;;
54881;SDS011;40775;51.448;4.742;2022-08-11T09:47:17;3.70;;;1.77;;
54881;SDS011;40775;51.448;4.742;2022-08-11T09:49:54;3.05;;;1.65;;
54881;SDS011;40775;51.448;4.742;2022-08-11T09:52:28;3.25;;;1.58;;
54881;SDS011;40775;51.448;4.742;2022-08-11T09:55:01;2.07;;;1.10;;
54881;SDS011;40775;51.448;4.742;2022-08-11T09:57:39;4.53;;;1.60;;
54881;SDS011;40775;51.448;4.742;2022-08-11T10:00:30;2.40;;;1.23;;
54881;SDS011;40775;51.448;4.742;2022-08-11T10:03:12;2.35;;;1.30;;
54881;SDS011;40775;51.448;4.742;2022-08-11T10:05:53;3.38;;;1.73;;
54881;SDS011;40775;51.448;4.742;2022-08-11T10:08:43;2.30;;;1.30;;
54881;SDS011;40775;51.448;4.742;2022-08-11T10:11:13;3.13;;;1.50;;
54881;SDS011;40775;51.448;4.742;2022-08-11T10:13:44;3.75;;;1.88;;
54881;SDS011;40775;51.448;4.742;2022-08-11T10:16:50;3.58;;;1.60;;
54881;SDS011;40775;51.448;4.742;2022-08-11T10:19:18;3.42;;;1.80;;
54881;SDS011;40775;51.448;4.742;2022-08-11T10:21:49;2.90;;;1.50;;
54881;SDS011;40775;51.448;4.742;2022-08-11T10:24:38;3.08;;;1.70;;
54881;SDS011;40775;51.448;4.742;2022-08-11T10:27:29;2.88;;;1.90;;
54881;SDS011;40775;51.448;4.742;2022-08-11T10:30:17;4.93;;;1.90;;
54881;SDS011;40775;51.448;4.742;2022-08-11T10:33:13;5.32;;;2.03;;
54881;SDS011;40775;51.448;4.742;2022-08-11T10:36:22;4.00;;;2.08;;
54881;SDS011;40775;51.448;4.742;2022-08-11T10:38:49;3.83;;;1.77;;
54881;SDS011;40775;51.448;4.742;2022-08-11T10:41:18;3.53;;;1.80;;
54881;SDS011;40775;51.448;4.742;2022-08-11T10:44:23;4.13;;;2.10;;
54881;SDS011;40775;51.448;4.742;2022-08-11T10:46:52;3.78;;;1.92;;
54881;SDS011;40775;51.448;4.742;2022-08-11T10:49:37;2.42;;;1.48;;
54881;SDS011;40775;51.448;4.742;2022-08-11T10:52:06;4.75;;;2.03;;
54881;SDS011;40775;51.448;4.742;2022-08-11T10:54:52;4.70;;;2.42;;
54881;SDS011;40775;51.448;4.742;2022-08-11T10:57:37;6.37;;;2.20;;
54881;SDS011;40775;51.448;4.742;2022-08-11T11:00:30;3.85;;;2.03;;
54881;SDS011;40775;51.448;4.742;2022-08-11T11:02:58;7.35;;;1.67;;
54881;SDS011;40775;51.448;4.742;2022-08-11T11:05:47;1.92;;;1.10;;
54881;SDS011;40775;51.448;4.742;2022-08-11T11:08:38;4.00;;;2.30;;
54881;SDS011;40775;51.448;4.742;2022-08-11T11:11:27;4.18;;;1.90;;
54881;SDS011;40775;51.448;4.742;2022-08-11T11:14:21;4.35;;;2.30;;
54881;SDS011;40775;51.448;4.742;2022-08-11T11:17:37;4.50;;;2.15;;
54881;SDS011;40775;51.448;4.742;2022-08-11T11:26:34;3.25;;;2.00;;
54881;SDS011;40775;51.448;4.742;2022-08-11T11:29:32;3.93;;;2.17;;
54881;SDS011;40775;51.448;4.742;2022-08-11T11:36:54;3.88;;;2.50;;
54881;SDS011;40775;51.448;4.742;2022-08-11T11:39:27;3.47;;;1.60;;
54881;SDS011;40775;51.448;4.742;2022-08-11T11:42:04;5.32;;;2.00;;
54881;SDS011;40775;51.448;4.742;2022-08-11T11:44:38;3.77;;;2.00;;
54881;SDS011;40775;51.448;4.742;2022-08-11T11:47:09;3.72;;;2.13;;
54881;SDS011;40775;51.448;4.742;2022-08-11T11:49:39;2.85;;;1.80;;
54881;SDS011;40775;51.448;4.742;2022-08-11T11:52:13;4.22;;;2.30;;
54881;SDS011;40775;51.448;4.742;2022-08-11T11:54:47;3.28;;;1.92;;
54881;SDS011;40775;51.448;4.742;2022-08-11T11:57:20;5.82;;;2.20;;
54881;SDS011;40775;51.448;4.742;2022-08-11T12:00:23;3.33;;;2.15;;
54881;SDS011;40775;51.448;4.742;2022-08-11T12:03:10;3.55;;;2.08;;
54881;SDS011;40775;51.448;4.742;2022-08-11T12:05:38;3.58;;;2.10;;
54881;SDS011;40775;51.448;4.742;2022-08-11T12:08:08;3.10;;;2.17;;
54881;SDS011;40775;51.448;4.742;2022-08-11T12:10:48;3.88;;;1.92;;
54881;SDS011;40775;51.448;4.742;2022-08-11T12:13:40;4.25;;;1.92;;
54881;SDS011;40775;51.448;4.742;2022-08-11T12:16:10;3.50;;;1.80;;
54881;SDS011;40775;51.448;4.742;2022-08-11T12:19:01;3.05;;;1.80;;
54881;SDS011;40775;51.448;4.742;2022-08-11T12:21:40;4.15;;;2.13;;
54881;SDS011;40775;51.448;4.742;2022-08-11T12:24:29;3.42;;;2.00;;
54881;SDS011;40775;51.448;4.742;2022-08-11T12:27:16;4.13;;;2.30;;
54881;SDS011;40775;51.448;4.742;2022-08-11T12:29:59;5.88;;;2.25;;
54881;SDS011;40775;51.448;4.742;2022-08-11T12:32:34;4.10;;;2.30;;
54881;SDS011;40775;51.448;4.742;2022-08-11T12:35:04;3.35;;;1.90;;
54881;SDS011;40775;51.448;4.742;2022-08-11T12:37:40;4.30;;;2.33;;
54881;SDS011;40775;51.448;4.742;2022-08-11T12:40:14;5.45;;;2.38;;
54881;SDS011;40775;51.448;4.742;2022-08-11T12:43:26;4.68;;;2.10;;
54881;SDS011;40775;51.448;4.742;2022-08-11T12:46:22;2.72;;;1.90;;
54881;SDS011;40775;51.448;4.742;2022-08-11T12:49:11;6.03;;;2.33;;
54881;SDS011;40775;51.448;4.742;2022-08-11T12:52:05;4.20;;;2.13;;
54881;SDS011;40775;51.448;4.742;2022-08-11T12:57:38;3.75;;;2.00;;
54881;SDS011;40775;51.448;4.742;2022-08-11T13:00:31;4.82;;;2.20;;
54881;SDS011;40775;51.448;4.742;2022-08-11T13:03:18;2.92;;;1.92;;
54881;SDS011;40775;51.448;4.742;2022-08-11T13:06:05;3.60;;;2.05;;
54881;SDS011;40775;51.448;4.742;2022-08-11T13:08:34;3.28;;;1.80;;
54881;SDS011;40775;51.448;4.742;2022-08-11T13:11:04;4.50;;;2.05;;
54881;SDS011;40775;51.448;4.742;2022-08-11T13:14:11;4.60;;;1.90;;
54881;SDS011;40775;51.448;4.742;2022-08-11T13:16:40;3.17;;;2.07;;
54881;SDS011;40775;51.448;4.742;2022-08-11T13:19:28;3.50;;;2.05;;
54881;SDS011;40775;51.448;4.742;2022-08-11T13:21:57;3.65;;;2.28;;
54881;SDS011;40775;51.448;4.742;2022-08-11T13:24:25;2.35;;;1.58;;
54881;SDS011;40775;51.448;4.742;2022-08-11T13:26:53;2.80;;;1.80;;
54881;SDS011;40775;51.448;4.742;2022-08-11T13:29:22;2.90;;;1.95;;
54881;SDS011;40775;51.448;4.742;2022-08-11T13:31:53;3.10;;;1.58;;
54881;SDS011;40775;51.448;4.742;2022-08-11T13:34:26;4.30;;;1.60;;
54881;SDS011;40775;51.448;4.742;2022-08-11T13:36:58;3.90;;;1.97;;
54881;SDS011;40775;51.448;4.742;2022-08-11T13:39:31;3.22;;;1.83;;
54881;SDS011;40775;51.448;4.742;2022-08-11T13:42:00;3.63;;;2.10;;
54881;SDS011;40775;51.448;4.742;2022-08-11T13:44:30;3.22;;;2.08;;
54881;SDS011;40775;51.448;4.742;2022-08-11T13:47:02;2.63;;;1.80;;
54881;SDS011;40775;51.448;4.742;2022-08-11T13:49:33;3.15;;;1.67;;
54881;SDS011;40775;51.448;4.742;2022-08-11T13:52:05;2.53;;;1.60;;
54881;SDS011;40775;51.448;4.742;2022-08-11T13:54:39;2.50;;;1.63;;
54881;SDS011;40775;51.448;4.742;2022-08-11T13:57:08;3.05;;;1.70;;
54881;SDS011;40775;51.448;4.742;2022-08-11T13:59:58;3.00;;;1.70;;
54881;SDS011;40775;51.448;4.742;2022-08-11T14:02:52;3.05;;;1.83;;
54881;SDS011;40775;51.448;4.742;2022-08-11T14:05:21;2.92;;;1.88;;
54881;SDS011;40775;51.448;4.742;2022-08-11T14:08:00;3.33;;;2.17;;
54881;SDS011;40775;51.448;4.742;2022-08-11T14:10:30;3.05;;;1.70;;
54881;SDS011;40775;51.448;4.742;2022-08-11T14:13:02;2.70;;;1.80;;
54881;SDS011;40775;51.448;4.742;2022-08-11T14:16:20;5.40;;;2.08;;
54881;SDS011;40775;51.448;4.742;2022-08-11T14:18:57;3.22;;;1.80;;
54881;SDS011;40775;51.448;4.742;2022-08-11T14:21:31;2.73;;;1.50;;
54881;SDS011;40775;51.448;4.742;2022-08-11T14:24:21;2.95;;;1.67;;
54881;SDS011;40775;51.448;4.742;2022-08-11T14:26:49;3.53;;;1.83;;
54881;SDS011;40775;51.448;4.742;2022-08-11T14:29:18;2.72;;;1.75;;
54881;SDS011;40775;51.448;4.742;2022-08-11T14:31:48;2.30;;;1.52;;
54881;SDS011;40775;51.448;4.742;2022-08-11T14:34:25;2.75;;;1.60;;
54881;SDS011;40775;51.448;4.742;2022-08-11T14:36:58;3.53;;;2.10;;
54881;SDS011;40775;51.448;4.742;2022-08-11T14:39:42;3.72;;;1.95;;
54881;SDS011;40775;51.448;4.742;2022-08-11T14:42:13;4.15;;;2.20;;
54881;SDS011;40775;51.448;4.742;2022-08-11T14:45:02;3.50;;;1.90;;
54881;SDS011;40775;51.448;4.742;2022-08-11T14:48:22;3.63;;;1.80;;
54881;SDS011;40775;51.448;4.742;2022-08-11T14:50:50;4.00;;;1.63;;
54881;SDS011;40775;51.448;4.742;2022-08-11T14:53:18;4.63;;;1.95;;
54881;SDS011;40775;51.448;4.742;2022-08-11T14:55:48;4.38;;;2.08;;
54881;SDS011;40775;51.448;4.742;2022-08-11T14:58:35;7.57;;;2.20;;
54881;SDS011;40775;51.448;4.742;2022-08-11T15:01:02;6.93;;;2.23;;
54881;SDS011;40775;51.448;4.742;2022-08-11T15:03:53;2.97;;;1.70;;
54881;SDS011;40775;51.448;4.742;2022-08-11T15:06:43;2.85;;;1.60;;
54881;SDS011;40775;51.448;4.742;2022-08-11T15:09:10;2.22;;;1.27;;
54881;SDS011;40775;51.448;4.742;2022-08-11T15:11:38;2.50;;;1.58;;
54881;SDS011;40775;51.448;4.742;2022-08-11T15:14:25;2.35;;;1.50;;
54881;SDS011;40775;51.448;4.742;2022-08-11T15:17:11;2.58;;;1.55;;
54881;SDS011;40775;51.448;4.742;2022-08-11T15:19:40;3.40;;;1.55;;
54881;SDS011;40775;51.448;4.742;2022-08-11T15:22:29;2.35;;;1.50;;
54881;SDS011;40775;51.448;4.742;2022-08-11T15:25:15;2.90;;;1.30;;
54881;SDS011;40775;51.448;4.742;2022-08-11T15:27:46;2.28;;;1.50;;
54881;SDS011;40775;51.448;4.742;2022-08-11T15:30:35;2.95;;;1.70;;
54881;SDS011;40775;51.448;4.742;2022-08-11T15:33:22;2.13;;;1.40;;
54881;SDS011;40775;51.448;4.742;2022-08-11T15:36:10;2.28;;;1.35;;
54881;SDS011;40775;51.448;4.742;2022-08-11T15:39:01;2.17;;;1.35;;
54881;SDS011;40775;51.448;4.742;2022-08-11T15:41:50;2.95;;;1.50;;
54881;SDS011;40775;51.448;4.742;2022-08-11T15:44:46;2.25;;;1.45;;
54881;SDS011;40775;51.448;4.742;2022-08-11T15:48:00;2.60;;;1.50;;
54881;SDS011;40775;51.448;4.742;2022-08-11T15:50:31;2.25;;;1.40;;
54881;SDS011;40775;51.448;4.742;2022-08-11T15:53:06;2.92;;;1.48;;
54881;SDS011;40775;51.448;4.742;2022-08-11T15:55:43;2.27;;;1.60;;
54881;SDS011;40775;51.448;4.742;2022-08-11T15:58:13;3.28;;;1.55;;
54881;SDS011;40775;51.448;4.742;2022-08-11T16:01:02;2.57;;;1.40;;
54881;SDS011;40775;51.448;4.742;2022-08-11T16:03:53;2.17;;;1.38;;
54881;SDS011;40775;51.448;4.742;2022-08-11T16:10:07;2.20;;;1.50;;
54881;SDS011;40775;51.448;4.742;2022-08-11T16:12:20;3.07;;;1.80;;
54881;SDS011;40775;51.448;4.742;2022-08-11T16:14:52;2.45;;;1.50;;
54881;SDS011;40775;51.448;4.742;2022-08-11T16:17:47;1.80;;;1.48;;
54881;SDS011;40775;51.448;4.742;2022-08-11T16:20:18;1.92;;;1.35;;
54881;SDS011;40775;51.448;4.742;2022-08-11T16:22:48;2.42;;;1.50;;
54881;SDS011;40775;51.448;4.742;2022-08-11T16:25:27;2.17;;;1.33;;
54881;SDS011;40775;51.448;4.742;2022-08-11T16:28:18;2.40;;;1.40;;
54881;SDS011;40775;51.448;4.742;2022-08-11T16:30:47;2.90;;;1.80;;
54881;SDS011;40775;51.448;4.742;2022-08-11T16:33:17;2.50;;;1.55;;
54881;SDS011;40775;51.448;4.742;2022-08-11T16:36:09;2.03;;;1.20;;
54881;SDS011;40775;51.448;4.742;2022-08-11T16:38:58;2.47;;;1.60;;
54881;SDS011;40775;51.448;4.742;2022-08-11T16:41:28;2.77;;;1.60;;
54881;SDS011;40775;51.448;4.742;2022-08-11T16:44:17;2.63;;;1.50;;
54881;SDS011;40775;51.448;4.742;2022-08-11T16:47:05;1.92;;;1.23;;
54881;SDS011;40775;51.448;4.742;2022-08-11T16:49:36;2.30;;;1.55;;
54881;SDS011;40775;51.448;4.742;2022-08-11T16:52:18;3.20;;;1.50;;
54881;SDS011;40775;51.448;4.742;2022-08-11T16:54:49;3.70;;;1.73;;
54881;SDS011;40775;51.448;4.742;2022-08-11T16:57:24;2.50;;;1.40;;
54881;SDS011;40775;51.448;4.742;2022-08-11T17:00:14;4.63;;;1.65;;
54881;SDS011;40775;51.448;4.742;2022-08-11T17:02:46;3.40;;;1.63;;
54881;SDS011;40775;51.448;4.742;2022-08-11T17:05:35;2.70;;;1.70;;
54881;SDS011;40775;51.448;4.742;2022-08-11T17:08:29;3.60;;;1.63;;
54881;SDS011;40775;51.448;4.742;2022-08-11T17:11:45;4.70;;;1.90;;
54881;SDS011;40775;51.448;4.742;2022-08-11T17:14:41;4.80;;;1.73;;
54881;SDS011;40775;51.448;4.742;2022-08-11T17:17:14;2.90;;;1.50;;
54881;SDS011;40775;51.448;4.742;2022-08-11T17:19:56;4.35;;;2.38;;
54881;SDS011;40775;51.448;4.742;2022-08-11T17:22:46;3.15;;;1.83;;
54881;SDS011;40775;51.448;4.742;2022-08-11T17:25:39;5.50;;;1.90;;
54881;SDS011;40775;51.448;4.742;2022-08-11T17:28:28;3.55;;;1.58;;
54881;SDS011;40775;51.448;4.742;2022-08-11T17:30:59;4.83;;;1.77;;
54881;SDS011;40775;51.448;4.742;2022-08-11T17:33:50;4.88;;;2.00;;
54881;SDS011;40775;51.448;4.742;2022-08-11T17:36:41;3.83;;;1.80;;
54881;SDS011;40775;51.448;4.742;2022-08-11T17:39:11;4.67;;;2.00;;
54881;SDS011;40775;51.448;4.742;2022-08-11T17:41:40;3.25;;;1.60;;
54881;SDS011;40775;51.448;4.742;2022-08-11T17:44:28;3.15;;;1.70;;
54881;SDS011;40775;51.448;4.742;2022-08-11T17:47:16;2.45;;;1.60;;
54881;SDS011;40775;51.448;4.742;2022-08-11T17:50:04;2.45;;;1.60;;
54881;SDS011;40775;51.448;4.742;2022-08-11T17:52:43;3.13;;;1.70;;
54881;SDS011;40775;51.448;4.742;2022-08-11T17:55:31;3.65;;;2.00;;
54881;SDS011;40775;51.448;4.742;2022-08-11T17:58:19;3.50;;;1.33;;
54881;SDS011;40775;51.448;4.742;2022-08-11T18:01:07;2.70;;;1.58;;
54881;SDS011;40775;51.448;4.742;2022-08-11T18:03:37;3.17;;;1.58;;
54881;SDS011;40775;51.448;4.742;2022-08-11T18:06:23;3.47;;;1.30;;
54881;SDS011;40775;51.448;4.742;2022-08-11T18:09:00;2.67;;;1.60;;
54881;SDS011;40775;51.448;4.742;2022-08-11T18:11:49;2.03;;;1.35;;
54881;SDS011;40775;51.448;4.742;2022-08-11T18:14:38;2.03;;;1.33;;
54881;SDS011;40775;51.448;4.742;2022-08-11T18:17:27;2.00;;;1.38;;
54881;SDS011;40775;51.448;4.742;2022-08-11T18:20:13;2.90;;;1.57;;
54881;SDS011;40775;51.448;4.742;2022-08-11T18:23:00;3.70;;;1.50;;
54881;SDS011;40775;51.448;4.742;2022-08-11T18:26:09;2.28;;;1.30;;
54881;SDS011;40775;51.448;4.742;2022-08-11T18:28:57;2.28;;;1.38;;
54881;SDS011;40775;51.448;4.742;2022-08-11T18:31:46;2.92;;;1.38;;
54881;SDS011;40775;51.448;4.742;2022-08-11T18:34:36;3.42;;;1.40;;
54881;SDS011;40775;51.448;4.742;2022-08-11T18:37:26;1.88;;;1.30;;
54881;SDS011;40775;51.448;4.742;2022-08-11T18:40:21;2.05;;;1.20;;
54881;SDS011;40775;51.448;4.742;2022-08-11T18:43:10;1.75;;;1.33;;
54881;SDS011;40775;51.448;4.742;2022-08-11T18:46:00;2.10;;;1.27;;
54881;SDS011;40775;51.448;4.742;2022-08-11T18:48:54;2.57;;;1.40;;
54881;SDS011;40775;51.448;4.742;2022-08-11T18:51:45;2.72;;;1.35;;
54881;SDS011;40775;51.448;4.742;2022-08-11T18:54:35;2.00;;;1.10;;
54881;SDS011;40775;51.448;4.742;2022-08-11T18:57:25;2.42;;;1.27;;
54881;SDS011;40775;51.448;4.742;2022-08-11T19:00:19;2.63;;;1.40;;
54881;SDS011;40775;51.448;4.742;2022-08-11T19:03:07;1.83;;;1.17;;
54881;SDS011;40775;51.448;4.742;2022-08-11T19:06:00;2.13;;;1.30;;
54881;SDS011;40775;51.448;4.742;2022-08-11T19:09:07;2.65;;;1.40;;
54881;SDS011;40775;51.448;4.742;2022-08-11T19:11:58;2.30;;;1.40;;
54881;SDS011;40775;51.448;4.742;2022-08-11T19:14:47;2.38;;;1.55;;
54881;SDS011;40775;51.448;4.742;2022-08-11T19:17:35;2.05;;;1.33;;
54881;SDS011;40775;51.448;4.742;2022-08-11T19:20:26;2.42;;;1.33;;
54881;SDS011;40775;51.448;4.742;2022-08-11T19:23:15;2.13;;;1.42;;
54881;SDS011;40775;51.448;4.742;2022-08-11T19:26:08;1.83;;;1.20;;
54881;SDS011;40775;51.448;4.742;2022-08-11T19:28:54;2.42;;;1.42;;
54881;SDS011;40775;51.448;4.742;2022-08-11T19:32:02;2.22;;;1.25;;
54881;SDS011;40775;51.448;4.742;2022-08-11T19:34:50;2.20;;;1.33;;
54881;SDS011;40775;51.448;4.742;2022-08-11T19:37:37;2.63;;;1.40;;
54881;SDS011;40775;51.448;4.742;2022-08-11T19:40:29;2.30;;;1.50;;
54881;SDS011;40775;51.448;4.742;2022-08-11T19:43:17;2.67;;;1.70;;
54881;SDS011;40775;51.448;4.742;2022-08-11T19:46:04;2.78;;;1.55;;
54881;SDS011;40775;51.448;4.742;2022-08-11T19:48:52;1.88;;;1.23;;
54881;SDS011;40775;51.448;4.742;2022-08-11T19:51:40;2.20;;;1.40;;
54881;SDS011;40775;51.448;4.742;2022-08-11T19:54:29;2.63;;;1.58;;
54881;SDS011;40775;51.448;4.742;2022-08-11T19:57:18;2.10;;;1.30;;
54881;SDS011;40775;51.448;4.742;2022-08-11T20:00:07;2.60;;;1.20;;